PWSweather.com
Personal Weather Stations
Station Observations
KMICHEBO10
Cordwood Point, Lake Huron, Cheboygan, MI 49721

Cordwood Point, Lake HuronCheboygan, MI 49721

Lat: 45.663372, Lon: -84.3327789

Elevation: 598

Station Type: Davis Vantage Pro2 Wireless

https://www.lakehuronweather.org

High Low Average
Temperature 29.3°F-1.5°C 2.5°F-16.4°C 19.1°F-7.2°C
Dew Point 26.5°F-3.1°C -2.8°F-19.3°C 14.8°F-9.6°C
Winds 5.8 mph 9.3 kmh Calm Calm 3.0 mph S4.8 kmh S
Wind Gusts 13.8 mph22.2 kmh 1.2 mph1.9 kmh 6.0 mph9.7 kmh
Humidity 89% 77% 83%
Pressure 30.39 in1029.1 mb 29.75 in1007.5 mb -
Precipitation 0.00 in0.0 mm - -
Hour Temp Dew Point Humidity Winds Wind Gusts Pressure Precip Precip Rate Daily Precip Total
12:00 AM 1.4°F-17.0°C -3.6°F-19.8°C 79% 1.2 mph SSE1.9 kmh SSE 2.3 mph3.7 kmh 30.43 in1030.5 mb - 0.00 in0.0 mm 0.00 in0.0 mm
12:10 AM 1.6°F-16.9°C -3.6°F-19.8°C 78% 1.2 mph SSE1.9 kmh SSE 3.5 mph5.6 kmh 30.43 in1030.5 mb - 0.00 in0.0 mm 0.00 in0.0 mm
12:20 AM 1.6°F-16.9°C -3.4°F-19.7°C 79% 2.3 mph S3.7 kmh S 3.5 mph5.6 kmh 30.42 in1030.1 mb - 0.00 in0.0 mm 0.00 in0.0 mm
12:30 AM 1.9°F-16.7°C -3.1°F-19.5°C 79% 3.5 mph S5.6 kmh S 5.8 mph9.3 kmh 30.41 in1029.8 mb - 0.00 in0.0 mm 0.00 in0.0 mm
12:40 AM 2.1°F-16.6°C -2.9°F-19.4°C 79% 2.3 mph S3.7 kmh S 6.9 mph11.1 kmh 30.41 in1029.8 mb - 0.00 in0.0 mm 0.00 in0.0 mm
12:50 AM 2.3°F-16.5°C -2.7°F-19.3°C 79% 3.5 mph S5.6 kmh S 6.9 mph11.1 kmh 30.40 in1029.5 mb - 0.00 in0.0 mm 0.00 in0.0 mm
01:00 AM 2.5°F-16.4°C -2.5°F-19.2°C 79% 1.2 mph S1.9 kmh S 3.5 mph5.6 kmh 30.39 in1029.1 mb - 0.00 in0.0 mm 0.00 in0.0 mm
01:10 AM 2.5°F-16.4°C -2.8°F-19.3°C 78% 2.3 mph S3.7 kmh S 4.6 mph7.4 kmh 30.38 in1028.8 mb - 0.00 in0.0 mm 0.00 in0.0 mm
01:20 AM 2.5°F-16.4°C -2.5°F-19.2°C 79% 2.3 mph S3.7 kmh S 3.5 mph5.6 kmh 30.37 in1028.4 mb - 0.00 in0.0 mm 0.00 in0.0 mm
01:30 AM 2.5°F-16.4°C -2.5°F-19.2°C 79% 1.2 mph S1.9 kmh S 8.1 mph13.0 kmh 30.36 in1028.1 mb - 0.00 in0.0 mm 0.00 in0.0 mm
01:40 AM 2.9°F-16.2°C -1.9°F-18.8°C 80% 3.5 mph S5.6 kmh S 4.6 mph7.4 kmh 30.36 in1028.1 mb - 0.00 in0.0 mm 0.00 in0.0 mm
01:50 AM 3.2°F-16.0°C -1.6°F-18.7°C 80% 4.6 mph S7.4 kmh S 8.1 mph13.0 kmh 30.35 in1027.8 mb - 0.00 in0.0 mm 0.00 in0.0 mm
02:00 AM 3.6°F-15.8°C -1.2°F-18.4°C 80% 3.5 mph S5.6 kmh S 6.9 mph11.1 kmh 30.34 in1027.4 mb - 0.00 in0.0 mm 0.00 in0.0 mm
02:10 AM 4.0°F-15.6°C -1.1°F-18.4°C 79% 4.6 mph SSE7.4 kmh SSE 9.2 mph14.8 kmh 30.34 in1027.4 mb - 0.00 in0.0 mm 0.00 in0.0 mm
02:20 AM 4.4°F-15.3°C -0.7°F-18.2°C 79% 3.5 mph S5.6 kmh S 5.8 mph9.3 kmh 30.33 in1027.1 mb - 0.00 in0.0 mm 0.00 in0.0 mm
02:30 AM 4.5°F-15.3°C -0.6°F-18.1°C 79% 4.6 mph S7.4 kmh S 6.9 mph11.1 kmh 30.32 in1026.8 mb - 0.00 in0.0 mm 0.00 in0.0 mm
02:40 AM 4.7°F-15.2°C -0.4°F-18.0°C 79% 3.5 mph S5.6 kmh S 8.1 mph13.0 kmh 30.32 in1026.8 mb - 0.00 in0.0 mm 0.00 in0.0 mm
02:50 AM 5.0°F-15.0°C -0.1°F-17.8°C 79% 2.3 mph SSE3.7 kmh SSE 8.1 mph13.0 kmh 30.31 in1026.4 mb - 0.00 in0.0 mm 0.00 in0.0 mm
03:00 AM 5.1°F-14.9°C 0.0°F-17.8°C 79% 5.8 mph S9.3 kmh S 4.6 mph7.4 kmh 30.30 in1026.1 mb - 0.00 in0.0 mm 0.00 in0.0 mm
03:10 AM 5.2°F-14.9°C 0.1°F-17.7°C 79% 4.6 mph SSE7.4 kmh SSE 9.2 mph14.8 kmh 30.30 in1026.1 mb - 0.00 in0.0 mm 0.00 in0.0 mm
03:20 AM 5.4°F-14.8°C 0.3°F-17.6°C 79% 3.5 mph SSE5.6 kmh SSE 5.8 mph9.3 kmh 30.28 in1025.4 mb - 0.00 in0.0 mm 0.00 in0.0 mm
03:30 AM 5.5°F-14.7°C 0.4°F-17.6°C 79% 5.8 mph S9.3 kmh S 8.1 mph13.0 kmh 30.28 in1025.4 mb - 0.00 in0.0 mm 0.00 in0.0 mm
03:40 AM 5.7°F-14.6°C 0.6°F-17.4°C 79% 4.6 mph SSE7.4 kmh SSE 8.1 mph13.0 kmh 30.27 in1025.1 mb - 0.00 in0.0 mm 0.00 in0.0 mm
03:50 AM 5.9°F-14.5°C 0.8°F-17.3°C 79% 3.5 mph S5.6 kmh S 5.8 mph9.3 kmh 30.27 in1025.1 mb - 0.00 in0.0 mm 0.00 in0.0 mm
04:00 AM 6.2°F-14.3°C 1.1°F-17.2°C 79% 4.6 mph S7.4 kmh S 5.8 mph9.3 kmh 30.27 in1025.1 mb - 0.00 in0.0 mm 0.00 in0.0 mm
04:10 AM 6.3°F-14.3°C 1.2°F-17.1°C 79% 2.3 mph S3.7 kmh S 6.9 mph11.1 kmh 30.26 in1024.7 mb - 0.00 in0.0 mm 0.00 in0.0 mm
04:20 AM 6.3°F-14.3°C 1.4°F-17.0°C 80% 2.3 mph S3.7 kmh S 5.8 mph9.3 kmh 30.26 in1024.7 mb - 0.00 in0.0 mm 0.00 in0.0 mm
04:30 AM 6.6°F-14.1°C 1.5°F-16.9°C 79% 3.5 mph S5.6 kmh S 6.9 mph11.1 kmh 30.25 in1024.4 mb - 0.00 in0.0 mm 0.00 in0.0 mm
04:40 AM 6.9°F-13.9°C 1.8°F-16.8°C 79% 4.6 mph S7.4 kmh S 8.1 mph13.0 kmh 30.25 in1024.4 mb - 0.00 in0.0 mm 0.00 in0.0 mm
04:50 AM 7.1°F-13.8°C 2.2°F-16.6°C 80% 4.6 mph SSE7.4 kmh SSE 8.1 mph13.0 kmh 30.24 in1024.0 mb - 0.00 in0.0 mm 0.00 in0.0 mm
05:00 AM 7.5°F-13.6°C 2.6°F-16.3°C 80% 3.5 mph S5.6 kmh S 4.6 mph7.4 kmh 30.24 in1024.0 mb - 0.00 in0.0 mm 0.00 in0.0 mm
05:10 AM 7.9°F-13.4°C 3.0°F-16.1°C 80% 1.2 mph SSE1.9 kmh SSE 3.5 mph5.6 kmh 30.23 in1023.7 mb - 0.00 in0.0 mm 0.00 in0.0 mm
05:20 AM 8.3°F-13.2°C 3.4°F-15.9°C 80% 3.5 mph SSE5.6 kmh SSE 4.6 mph7.4 kmh 30.23 in1023.7 mb - 0.00 in0.0 mm 0.00 in0.0 mm
05:30 AM 8.7°F-12.9°C 4.0°F-15.6°C 81% 3.5 mph SSW5.6 kmh SSW 6.9 mph11.1 kmh 30.22 in1023.4 mb - 0.00 in0.0 mm 0.00 in0.0 mm
05:40 AM 9.1°F-12.7°C 4.4°F-15.3°C 81% 4.6 mph S7.4 kmh S 6.9 mph11.1 kmh 30.21 in1023.0 mb - 0.00 in0.0 mm 0.00 in0.0 mm
05:50 AM 9.3°F-12.6°C 4.7°F-15.2°C 81% 4.6 mph S7.4 kmh S 6.9 mph11.1 kmh 30.20 in1022.7 mb - 0.00 in0.0 mm 0.00 in0.0 mm
06:00 AM 9.6°F-12.4°C 4.9°F-15.1°C 81% 3.5 mph SSW5.6 kmh SSW 4.6 mph7.4 kmh 30.20 in1022.7 mb - 0.00 in0.0 mm 0.00 in0.0 mm
06:10 AM 9.9°F-12.3°C 5.8°F-14.6°C 83% 4.6 mph S7.4 kmh S 6.9 mph11.1 kmh 30.19 in1022.4 mb - 0.00 in0.0 mm 0.00 in0.0 mm
06:20 AM 10.1°F-12.2°C 6.0°F-14.4°C 83% 4.6 mph S7.4 kmh S 8.1 mph13.0 kmh 30.19 in1022.4 mb - 0.00 in0.0 mm 0.00 in0.0 mm
06:30 AM 10.3°F-12.1°C 6.4°F-14.2°C 84% 2.3 mph S3.7 kmh S 4.6 mph7.4 kmh 30.18 in1022.0 mb - 0.00 in0.0 mm 0.00 in0.0 mm
06:40 AM 10.4°F-12.0°C 6.5°F-14.2°C 84% 3.5 mph SSE5.6 kmh SSE 5.8 mph9.3 kmh 30.17 in1021.7 mb - 0.00 in0.0 mm 0.00 in0.0 mm
06:50 AM 10.6°F-11.9°C 6.7°F-14.1°C 84% 2.3 mph S3.7 kmh S 5.8 mph9.3 kmh 30.17 in1021.7 mb - 0.00 in0.0 mm 0.00 in0.0 mm
07:00 AM 10.8°F-11.8°C 7.2°F-13.8°C 85% 4.6 mph S7.4 kmh S 8.1 mph13.0 kmh 30.16 in1021.3 mb - 0.00 in0.0 mm 0.00 in0.0 mm
07:10 AM 11.0°F-11.7°C 7.4°F-13.7°C 85% 3.5 mph SSE5.6 kmh SSE 8.1 mph13.0 kmh 30.15 in1021.0 mb - 0.00 in0.0 mm 0.00 in0.0 mm
07:20 AM 11.5°F-11.4°C 7.8°F-13.4°C 85% 4.6 mph S7.4 kmh S 8.1 mph13.0 kmh 30.14 in1020.7 mb - 0.00 in0.0 mm 0.00 in0.0 mm
07:30 AM 11.9°F-11.2°C 8.0°F-13.3°C 84% 1.2 mph SE1.9 kmh SE 2.3 mph3.7 kmh 30.14 in1020.7 mb - 0.00 in0.0 mm 0.00 in0.0 mm
07:40 AM 12.2°F-11.0°C 8.6°F-13.0°C 85% 3.5 mph S5.6 kmh S 6.9 mph11.1 kmh 30.14 in1020.7 mb - 0.00 in0.0 mm 0.00 in0.0 mm
07:50 AM 12.7°F-10.7°C 8.8°F-12.9°C 84% 2.3 mph S3.7 kmh S 6.9 mph11.1 kmh 30.13 in1020.3 mb - 0.00 in0.0 mm 0.00 in0.0 mm
08:00 AM 13.5°F-10.3°C 9.6°F-12.4°C 84% 3.5 mph S5.6 kmh S 11.5 mph18.5 kmh 30.12 in1020.0 mb - 0.00 in0.0 mm 0.00 in0.0 mm
08:10 AM 14.4°F-9.8°C 10.2°F-12.1°C 83% 2.3 mph SSE3.7 kmh SSE 4.6 mph7.4 kmh 30.12 in1020.0 mb - 0.00 in0.0 mm 0.00 in0.0 mm
08:20 AM 14.8°F-9.6°C 10.3°F-12.1°C 82% 3.5 mph SSE5.6 kmh SSE 8.1 mph13.0 kmh 30.10 in1019.3 mb - 0.00 in0.0 mm 0.00 in0.0 mm
08:30 AM 15.2°F-9.3°C 10.4°F-12.0°C 81% 4.6 mph S7.4 kmh S 6.9 mph11.1 kmh 30.09 in1019.0 mb - 0.00 in0.0 mm 0.00 in0.0 mm
08:40 AM 15.5°F-9.2°C 10.4°F-12.0°C 80% 4.6 mph S7.4 kmh S 6.9 mph11.1 kmh 30.08 in1018.6 mb - 0.00 in0.0 mm 0.00 in0.0 mm
08:50 AM 15.8°F-9.0°C 10.4°F-12.0°C 79% 3.5 mph SSW5.6 kmh SSW 5.8 mph9.3 kmh 30.07 in1018.3 mb - 0.00 in0.0 mm 0.00 in0.0 mm
09:00 AM 16.2°F-8.8°C 10.8°F-11.8°C 79% 3.5 mph SSE5.6 kmh SSE 6.9 mph11.1 kmh 30.07 in1018.3 mb - 0.00 in0.0 mm 0.00 in0.0 mm
09:10 AM 16.4°F-8.7°C 10.7°F-11.8°C 78% 4.6 mph S7.4 kmh S 5.8 mph9.3 kmh 30.06 in1017.9 mb - 0.00 in0.0 mm 0.00 in0.0 mm
09:20 AM 16.6°F-8.6°C 10.9°F-11.7°C 78% 4.6 mph SSW7.4 kmh SSW 10.4 mph16.7 kmh 30.05 in1017.6 mb - 0.00 in0.0 mm 0.00 in0.0 mm
09:30 AM 16.8°F-8.4°C 11.1°F-11.6°C 78% 4.6 mph S7.4 kmh S 9.2 mph14.8 kmh 30.04 in1017.3 mb - 0.00 in0.0 mm 0.00 in0.0 mm
09:40 AM 17.0°F-8.3°C 11.0°F-11.7°C 77% 2.3 mph S3.7 kmh S 4.6 mph7.4 kmh 30.04 in1017.3 mb - 0.00 in0.0 mm 0.00 in0.0 mm
09:50 AM 17.1°F-8.3°C 11.1°F-11.6°C 77% 4.6 mph SSW7.4 kmh SSW 6.9 mph11.1 kmh 30.04 in1017.3 mb - 0.00 in0.0 mm 0.00 in0.0 mm
10:00 AM 17.2°F-8.2°C 11.2°F-11.6°C 77% 1.2 mph SSE1.9 kmh SSE 5.8 mph9.3 kmh 30.03 in1016.9 mb - 0.00 in0.0 mm 0.00 in0.0 mm
10:10 AM 17.3°F-8.2°C 11.6°F-11.3°C 78% 3.5 mph S5.6 kmh S 3.5 mph5.6 kmh 30.03 in1016.9 mb - 0.00 in0.0 mm 0.00 in0.0 mm
10:20 AM 17.5°F-8.1°C 11.5°F-11.4°C 77% 3.5 mph S5.6 kmh S 5.8 mph9.3 kmh 30.02 in1016.6 mb - 0.00 in0.0 mm 0.00 in0.0 mm
10:30 AM 17.8°F-7.9°C 11.8°F-11.2°C 77% 3.5 mph S5.6 kmh S 11.5 mph18.5 kmh 30.02 in1016.6 mb - 0.00 in0.0 mm 0.00 in0.0 mm
10:40 AM 18.0°F-7.8°C 12.0°F-11.1°C 77% 3.5 mph SSE5.6 kmh SSE 4.6 mph7.4 kmh 30.02 in1016.6 mb - 0.00 in0.0 mm 0.00 in0.0 mm
10:50 AM 18.1°F-7.7°C 12.1°F-11.1°C 77% 3.5 mph SSE5.6 kmh SSE 5.8 mph9.3 kmh 30.00 in1015.9 mb - 0.00 in0.0 mm 0.00 in0.0 mm
11:00 AM 18.4°F-7.6°C 12.4°F-10.9°C 77% 4.6 mph S7.4 kmh S 8.1 mph13.0 kmh 30.00 in1015.9 mb - 0.00 in0.0 mm 0.00 in0.0 mm
11:10 AM 18.7°F-7.4°C 12.7°F-10.7°C 77% 2.3 mph SSE3.7 kmh SSE 4.6 mph7.4 kmh 29.99 in1015.6 mb - 0.00 in0.0 mm 0.00 in0.0 mm
11:20 AM 19.0°F-7.2°C 12.9°F-10.6°C 77% 2.3 mph SSW3.7 kmh SSW 5.8 mph9.3 kmh 29.99 in1015.6 mb - 0.00 in0.0 mm 0.00 in0.0 mm
11:30 AM 19.3°F-7.1°C 13.3°F-10.4°C 77% 3.5 mph S5.6 kmh S 4.6 mph7.4 kmh 29.98 in1015.2 mb - 0.00 in0.0 mm 0.00 in0.0 mm
11:40 AM 19.8°F-6.8°C 13.8°F-10.1°C 77% 2.3 mph SW3.7 kmh SW 3.5 mph5.6 kmh 29.98 in1015.2 mb - 0.00 in0.0 mm 0.00 in0.0 mm
11:50 AM 20.2°F-6.6°C 14.4°F-9.8°C 78% 4.6 mph SW7.4 kmh SW 6.9 mph11.1 kmh 29.98 in1015.2 mb - 0.00 in0.0 mm 0.00 in0.0 mm
12:00 PM 20.5°F-6.4°C 15.0°F-9.4°C 79% 2.3 mph SE3.7 kmh SE 3.5 mph5.6 kmh 29.98 in1015.2 mb - 0.00 in0.0 mm 0.00 in0.0 mm
12:10 PM 21.1°F-6.1°C 15.6°F-9.1°C 79% 2.3 mph S3.7 kmh S 9.2 mph14.8 kmh 29.98 in1015.2 mb - 0.00 in0.0 mm 0.00 in0.0 mm
12:20 PM 21.7°F-5.7°C 16.5°F-8.6°C 80% 3.5 mph SSW5.6 kmh SSW 10.4 mph16.7 kmh 29.97 in1014.9 mb - 0.00 in0.0 mm 0.00 in0.0 mm
12:30 PM 22.4°F-5.3°C 17.7°F-7.9°C 82% 5.8 mph SSW9.3 kmh SSW 11.5 mph18.5 kmh 29.96 in1014.6 mb - 0.00 in0.0 mm 0.00 in0.0 mm
12:40 PM 22.6°F-5.2°C 18.5°F-7.5°C 84% 5.8 mph S9.3 kmh S 8.1 mph13.0 kmh 29.95 in1014.2 mb - 0.00 in0.0 mm 0.00 in0.0 mm
12:50 PM 22.7°F-5.2°C 18.3°F-7.6°C 83% 2.3 mph S3.7 kmh S 8.1 mph13.0 kmh 29.95 in1014.2 mb - 0.00 in0.0 mm 0.00 in0.0 mm
01:00 PM 23.0°F-5.0°C 18.3°F-7.6°C 82% 5.8 mph SSW9.3 kmh SSW 11.5 mph18.5 kmh 29.94 in1013.9 mb - 0.00 in0.0 mm 0.00 in0.0 mm
01:10 PM 23.1°F-4.9°C 18.4°F-7.6°C 82% 3.5 mph S5.6 kmh S 6.9 mph11.1 kmh 29.93 in1013.5 mb - 0.00 in0.0 mm 0.00 in0.0 mm
01:20 PM 23.3°F-4.8°C 18.6°F-7.4°C 82% 4.6 mph SW7.4 kmh SW 9.2 mph14.8 kmh 29.92 in1013.2 mb - 0.00 in0.0 mm 0.00 in0.0 mm
01:30 PM 23.3°F-4.8°C 18.6°F-7.4°C 82% 4.6 mph SE7.4 kmh SE 5.8 mph9.3 kmh 29.91 in1012.9 mb - 0.00 in0.0 mm 0.00 in0.0 mm
01:40 PM 23.4°F-4.8°C 18.7°F-7.4°C 82% 5.8 mph S9.3 kmh S 11.5 mph18.5 kmh 29.90 in1012.5 mb - 0.00 in0.0 mm 0.00 in0.0 mm
01:50 PM 23.6°F-4.7°C 19.5°F-6.9°C 84% 2.3 mph S3.7 kmh S 9.2 mph14.8 kmh 29.89 in1012.2 mb - 0.00 in0.0 mm 0.00 in0.0 mm
02:00 PM 23.4°F-4.8°C 19.6°F-6.9°C 85% 2.3 mph SSE3.7 kmh SSE 6.9 mph11.1 kmh 29.89 in1012.2 mb - 0.00 in0.0 mm 0.00 in0.0 mm
02:10 PM 23.6°F-4.7°C 20.0°F-6.7°C 86% 4.6 mph SSW7.4 kmh SSW 11.5 mph18.5 kmh 29.88 in1011.9 mb - 0.00 in0.0 mm 0.00 in0.0 mm
02:20 PM 24.0°F-4.4°C 20.2°F-6.6°C 85% 5.8 mph S9.3 kmh S 13.8 mph22.2 kmh 29.87 in1011.5 mb - 0.00 in0.0 mm 0.00 in0.0 mm
02:30 PM 24.4°F-4.2°C 20.5°F-6.4°C 85% 4.6 mph SW7.4 kmh SW 6.9 mph11.1 kmh 29.87 in1011.5 mb - 0.00 in0.0 mm 0.00 in0.0 mm
02:40 PM 24.5°F-4.2°C 20.6°F-6.3°C 85% 3.5 mph S5.6 kmh S 9.2 mph14.8 kmh 29.86 in1011.2 mb - 0.00 in0.0 mm 0.00 in0.0 mm
02:50 PM 24.5°F-4.2°C 20.6°F-6.3°C 85% 2.3 mph WSW3.7 kmh WSW 5.8 mph9.3 kmh 29.86 in1011.2 mb - 0.00 in0.0 mm 0.00 in0.0 mm
03:00 PM 24.4°F-4.2°C 20.5°F-6.4°C 85% 3.5 mph S5.6 kmh S 3.5 mph5.6 kmh 29.85 in1010.8 mb - 0.00 in0.0 mm 0.00 in0.0 mm
03:10 PM 24.4°F-4.2°C 20.5°F-6.4°C 85% 1.2 mph S1.9 kmh S 4.6 mph7.4 kmh 29.85 in1010.8 mb - 0.00 in0.0 mm 0.00 in0.0 mm
03:20 PM 24.5°F-4.2°C 20.9°F-6.2°C 86% 3.5 mph S5.6 kmh S 5.8 mph9.3 kmh 29.85 in1010.8 mb - 0.00 in0.0 mm 0.00 in0.0 mm
03:30 PM 24.6°F-4.1°C 21.0°F-6.1°C 86% 1.2 mph SSW1.9 kmh SSW 5.8 mph9.3 kmh 29.84 in1010.5 mb - 0.00 in0.0 mm 0.00 in0.0 mm
03:40 PM 24.7°F-4.1°C 21.1°F-6.1°C 86% 3.5 mph SSW5.6 kmh SSW 11.5 mph18.5 kmh 29.84 in1010.5 mb - 0.00 in0.0 mm 0.00 in0.0 mm
03:50 PM 24.9°F-3.9°C 21.6°F-5.8°C 87% 4.6 mph SW7.4 kmh SW 9.2 mph14.8 kmh 29.83 in1010.2 mb - 0.00 in0.0 mm 0.00 in0.0 mm
04:00 PM 25.0°F-3.9°C 21.7°F-5.7°C 87% 3.5 mph WSW5.6 kmh WSW 6.9 mph11.1 kmh 29.83 in1010.2 mb - 0.00 in0.0 mm 0.00 in0.0 mm
04:10 PM 25.2°F-3.8°C 21.9°F-5.6°C 87% 2.3 mph SW3.7 kmh SW 4.6 mph7.4 kmh 29.82 in1009.8 mb - 0.00 in0.0 mm 0.00 in0.0 mm
04:20 PM 25.4°F-3.7°C 22.1°F-5.5°C 87% 3.5 mph WSW5.6 kmh WSW 4.6 mph7.4 kmh 29.83 in1010.2 mb - 0.00 in0.0 mm 0.00 in0.0 mm
04:30 PM 25.5°F-3.6°C 22.2°F-5.4°C 87% 3.5 mph SSW5.6 kmh SSW 5.8 mph9.3 kmh 29.83 in1010.2 mb - 0.00 in0.0 mm 0.00 in0.0 mm
04:40 PM 25.6°F-3.6°C 22.0°F-5.6°C 86% 4.6 mph SW7.4 kmh SW 5.8 mph9.3 kmh 29.83 in1010.2 mb - 0.00 in0.0 mm 0.00 in0.0 mm
04:50 PM 25.7°F-3.5°C 22.1°F-5.5°C 86% 2.3 mph S3.7 kmh S 3.5 mph5.6 kmh 29.82 in1009.8 mb - 0.00 in0.0 mm 0.00 in0.0 mm
05:00 PM 25.8°F-3.4°C 22.2°F-5.4°C 86% 2.3 mph SSW3.7 kmh SSW 3.5 mph5.6 kmh 29.82 in1009.8 mb - 0.00 in0.0 mm 0.00 in0.0 mm
05:10 PM 25.8°F-3.4°C 22.2°F-5.4°C 86% 5.8 mph SW9.3 kmh SW 9.2 mph14.8 kmh 29.81 in1009.5 mb - 0.00 in0.0 mm 0.00 in0.0 mm
05:20 PM 26.1°F-3.3°C 22.5°F-5.3°C 86% 3.5 mph SW5.6 kmh SW 8.1 mph13.0 kmh 29.81 in1009.5 mb - 0.00 in0.0 mm 0.00 in0.0 mm
05:30 PM 26.2°F-3.2°C 22.6°F-5.2°C 86% 5.8 mph SSW9.3 kmh SSW 10.4 mph16.7 kmh 29.81 in1009.5 mb - 0.00 in0.0 mm 0.00 in0.0 mm
05:40 PM 26.3°F-3.2°C 22.7°F-5.2°C 86% 3.5 mph S5.6 kmh S 4.6 mph7.4 kmh 29.81 in1009.5 mb - 0.00 in0.0 mm 0.00 in0.0 mm
05:50 PM 26.3°F-3.2°C 22.7°F-5.2°C 86% 2.3 mph SSW3.7 kmh SSW 4.6 mph7.4 kmh 29.82 in1009.8 mb - 0.00 in0.0 mm 0.00 in0.0 mm
06:00 PM 26.3°F-3.2°C 22.7°F-5.2°C 86% 1.2 mph S1.9 kmh S 4.6 mph7.4 kmh 29.82 in1009.8 mb - 0.00 in0.0 mm 0.00 in0.0 mm
06:10 PM 26.3°F-3.2°C 22.7°F-5.2°C 86% 2.3 mph SW3.7 kmh SW 6.9 mph11.1 kmh 29.82 in1009.8 mb - 0.00 in0.0 mm 0.00 in0.0 mm
06:20 PM 26.3°F-3.2°C 22.7°F-5.2°C 86% 3.5 mph SSW5.6 kmh SSW 8.1 mph13.0 kmh 29.82 in1009.8 mb - 0.00 in0.0 mm 0.00 in0.0 mm
06:30 PM 26.3°F-3.2°C 22.7°F-5.2°C 86% 2.3 mph SSW3.7 kmh SSW 3.5 mph5.6 kmh 29.82 in1009.8 mb - 0.00 in0.0 mm 0.00 in0.0 mm
06:40 PM 26.4°F-3.1°C 23.0°F-5.0°C 87% 1.2 mph SW1.9 kmh SW 2.3 mph3.7 kmh 29.82 in1009.8 mb - 0.00 in0.0 mm 0.00 in0.0 mm
06:50 PM 26.3°F-3.2°C 23.0°F-5.0°C 87% 1.2 mph SSW1.9 kmh SSW 3.5 mph5.6 kmh 29.82 in1009.8 mb - 0.00 in0.0 mm 0.00 in0.0 mm
07:00 PM 26.4°F-3.1°C 23.1°F-4.9°C 87% 2.3 mph SSW3.7 kmh SSW 4.6 mph7.4 kmh 29.82 in1009.8 mb - 0.00 in0.0 mm 0.00 in0.0 mm
07:10 PM 26.4°F-3.1°C 23.1°F-4.9°C 87% 4.6 mph S7.4 kmh S 6.9 mph11.1 kmh 29.82 in1009.8 mb - 0.00 in0.0 mm 0.00 in0.0 mm
07:20 PM 26.5°F-3.1°C 23.2°F-4.9°C 87% 1.2 mph S1.9 kmh S 2.3 mph3.7 kmh 29.82 in1009.8 mb - 0.00 in0.0 mm 0.00 in0.0 mm
07:30 PM 26.6°F-3.0°C 23.5°F-4.7°C 88% 1.2 mph SSW1.9 kmh SSW 2.3 mph3.7 kmh 29.82 in1009.8 mb - 0.00 in0.0 mm 0.00 in0.0 mm
07:40 PM 26.6°F-3.0°C 23.3°F-4.8°C 87% 2.3 mph SSW3.7 kmh SSW 4.6 mph7.4 kmh 29.82 in1009.8 mb - 0.00 in0.0 mm 0.00 in0.0 mm
07:50 PM 26.8°F-2.9°C 23.4°F-4.8°C 87% 3.5 mph SW5.6 kmh SW 3.5 mph5.6 kmh 29.82 in1009.8 mb - 0.00 in0.0 mm 0.00 in0.0 mm
08:00 PM 26.8°F-2.9°C 23.7°F-4.6°C 88% 1.2 mph SW1.9 kmh SW 2.3 mph3.7 kmh 29.82 in1009.8 mb - 0.00 in0.0 mm 0.00 in0.0 mm
08:10 PM 26.7°F-2.9°C 23.7°F-4.6°C 88% 1.2 mph SW1.9 kmh SW 3.5 mph5.6 kmh 29.82 in1009.8 mb - 0.00 in0.0 mm 0.00 in0.0 mm
08:20 PM 26.9°F-2.8°C 23.8°F-4.6°C 88% 2.3 mph SSW3.7 kmh SSW 5.8 mph9.3 kmh 29.81 in1009.5 mb - 0.00 in0.0 mm 0.00 in0.0 mm
08:30 PM 26.9°F-2.8°C 23.8°F-4.6°C 88% 1.2 mph SW1.9 kmh SW 2.3 mph3.7 kmh 29.81 in1009.5 mb - 0.00 in0.0 mm 0.00 in0.0 mm
08:40 PM 27.0°F-2.8°C 23.9°F-4.5°C 88% 1.2 mph SW1.9 kmh SW 1.2 mph1.9 kmh 29.81 in1009.5 mb - 0.00 in0.0 mm 0.00 in0.0 mm
08:50 PM 27.1°F-2.7°C 24.0°F-4.4°C 88% 1.2 mph SW1.9 kmh SW 2.3 mph3.7 kmh 29.81 in1009.5 mb - 0.00 in0.0 mm 0.00 in0.0 mm
09:00 PM 27.4°F-2.6°C 24.3°F-4.3°C 88% 2.3 mph SW3.7 kmh SW 3.5 mph5.6 kmh 29.81 in1009.5 mb - 0.00 in0.0 mm 0.00 in0.0 mm
09:10 PM 27.6°F-2.4°C 24.5°F-4.2°C 88% 1.2 mph SSW1.9 kmh SSW 2.3 mph3.7 kmh 29.81 in1009.5 mb - 0.00 in0.0 mm 0.00 in0.0 mm
09:20 PM 27.8°F-2.3°C 24.7°F-4.1°C 88% 1.2 mph SSW1.9 kmh SSW 6.9 mph11.1 kmh 29.80 in1009.1 mb - 0.00 in0.0 mm 0.00 in0.0 mm
09:30 PM 27.9°F-2.3°C 24.8°F-4.0°C 88% 2.3 mph SSW3.7 kmh SSW 3.5 mph5.6 kmh 29.80 in1009.1 mb - 0.00 in0.0 mm 0.00 in0.0 mm
09:40 PM 28.1°F-2.2°C 25.0°F-3.9°C 88% 3.5 mph SW5.6 kmh SW 6.9 mph11.1 kmh 29.80 in1009.1 mb - 0.00 in0.0 mm 0.00 in0.0 mm
09:50 PM 28.4°F-2.0°C 25.3°F-3.7°C 88% 3.5 mph SSW5.6 kmh SSW 5.8 mph9.3 kmh 29.79 in1008.8 mb - 0.00 in0.0 mm 0.00 in0.0 mm
10:00 PM 28.6°F-1.9°C 25.2°F-3.8°C 87% 1.2 mph S1.9 kmh S 3.5 mph5.6 kmh 29.79 in1008.8 mb - 0.00 in0.0 mm 0.00 in0.0 mm
10:10 PM 28.7°F-1.8°C 25.3°F-3.7°C 87% 1.2 mph S1.9 kmh S 2.3 mph3.7 kmh 29.79 in1008.8 mb - 0.00 in0.0 mm 0.00 in0.0 mm
10:20 PM 28.8°F-1.8°C 25.4°F-3.7°C 87% 2.3 mph SSE3.7 kmh SSE 3.5 mph5.6 kmh 29.79 in1008.8 mb - 0.00 in0.0 mm 0.00 in0.0 mm
10:30 PM 28.9°F-1.7°C 25.5°F-3.6°C 87% Calm Calm 3.5 mph5.6 kmh 29.78 in1008.5 mb - 0.00 in0.0 mm 0.00 in0.0 mm
10:40 PM 29.0°F-1.7°C 25.6°F-3.6°C 87% 1.2 mph S1.9 kmh S 1.2 mph1.9 kmh 29.78 in1008.5 mb - 0.00 in0.0 mm 0.00 in0.0 mm
10:50 PM 29.0°F-1.7°C 25.6°F-3.6°C 87% 3.5 mph SE5.6 kmh SE 3.5 mph5.6 kmh 29.78 in1008.5 mb - 0.00 in0.0 mm 0.00 in0.0 mm
11:00 PM 29.0°F-1.7°C 25.6°F-3.6°C 87% 1.2 mph S1.9 kmh S 1.2 mph1.9 kmh 29.77 in1008.1 mb - 0.00 in0.0 mm 0.00 in0.0 mm
11:10 PM 29.0°F-1.7°C 25.6°F-3.6°C 87% 2.3 mph SW3.7 kmh SW 2.3 mph3.7 kmh 29.77 in1008.1 mb - 0.00 in0.0 mm 0.00 in0.0 mm
11:20 PM 29.0°F-1.7°C 25.6°F-3.6°C 87% 1.2 mph SSW1.9 kmh SSW 3.5 mph5.6 kmh 29.77 in1008.1 mb - 0.00 in0.0 mm 0.00 in0.0 mm
11:30 PM 29.0°F-1.7°C 25.9°F-3.4°C 88% 1.2 mph SW1.9 kmh SW 3.5 mph5.6 kmh 29.77 in1008.1 mb - 0.00 in0.0 mm 0.00 in0.0 mm
11:40 PM 28.9°F-1.7°C 25.8°F-3.4°C 88% 1.2 mph S1.9 kmh S 2.3 mph3.7 kmh 29.76 in1007.8 mb - 0.00 in0.0 mm 0.00 in0.0 mm
11:50 PM 28.9°F-1.7°C 25.8°F-3.4°C 88% 3.5 mph SW5.6 kmh SW 4.6 mph7.4 kmh 29.76 in1007.8 mb - 0.00 in0.0 mm 0.00 in0.0 mm